TimeMST,TemperatureF,Dew PointF,Humidity,Sea Level PressureIn,VisibilityMPH,Wind Direction,Wind SpeedMPH,Gust SpeedMPH,PrecipitationIn,Events,Conditions,WindDirDegrees,DateUTC
12:15 AM,40.5,14.5,35,29.74,-9999.0,South,6.9,-,N/A,,Clear,180,2013-12-04 07:15:00
12:35 AM,36.7,16.5,44,29.73,-9999.0,South,5.8,-,N/A,,Clear,180,2013-12-04 07:35:00
12:55 AM,40.8,16.7,38,29.72,-9999.0,SSW,9.2,-,N/A,,Clear,200,2013-12-04 07:55:00
1:15 AM,40.6,18.0,40,29.72,-9999.0,SSW,8.1,-,N/A,,Clear,200,2013-12-04 08:15:00
1:35 AM,39.9,19.6,44,29.72,-9999.0,South,8.1,-,N/A,,Clear,190,2013-12-04 08:35:00
1:55 AM,40.1,20.5,45,29.72,-9999.0,SSW,9.2,-,N/A,,Clear,210,2013-12-04 08:55:00
2:15 AM,41.2,21.4,45,29.72,-9999.0,SSW,9.2,-,N/A,,Clear,200,2013-12-04 09:15:00
2:35 AM,41.5,22.1,46,29.71,-9999.0,SSW,12.7,-,N/A,,Clear,200,2013-12-04 09:35:00
2:55 AM,41.0,22.1,47,29.72,-9999.0,South,8.1,-,N/A,,Clear,190,2013-12-04 09:55:00
3:15 AM,40.3,22.1,48,29.70,-9999.0,South,9.2,18.4,N/A,,Clear,190,2013-12-04 10:15:00
3:35 AM,37.8,22.5,54,29.69,-9999.0,South,8.1,-,N/A,,Clear,170,2013-12-04 10:35:00
3:55 AM,38.1,22.6,54,29.69,-9999.0,South,9.2,-,N/A,,Clear,170,2013-12-04 10:55:00
4:15 AM,37.4,22.5,55,29.68,-9999.0,SSE,6.9,-,N/A,,Clear,160,2013-12-04 11:15:00
4:35 AM,34.2,22.3,62,29.69,-9999.0,ESE,6.9,-,N/A,,Clear,110,2013-12-04 11:35:00
4:55 AM,35.1,22.1,59,29.68,-9999.0,South,6.9,-,N/A,,Clear,170,2013-12-04 11:55:00
5:15 AM,36.5,21.2,54,29.68,-9999.0,South,5.8,-,N/A,,Clear,180,2013-12-04 12:15:00
5:35 AM,34.5,21.2,58,29.68,-9999.0,ESE,5.8,-,N/A,,Clear,110,2013-12-04 12:35:00
5:55 AM,35.2,21.2,57,29.68,-9999.0,SSE,4.6,-,N/A,,Clear,160,2013-12-04 12:55:00
6:15 AM,38.5,20.8,49,29.68,-9999.0,South,9.2,17.3,N/A,,Clear,180,2013-12-04 13:15:00
6:35 AM,39.2,19.4,45,29.68,-9999.0,South,11.5,16.1,N/A,,Clear,190,2013-12-04 13:35:00
6:55 AM,40.1,18.5,42,29.68,-9999.0,South,12.7,19.6,N/A,,Clear,190,2013-12-04 13:55:00
7:15 AM,36.1,21.6,56,29.68,-9999.0,SE,8.1,-,N/A,,Clear,140,2013-12-04 14:15:00
7:35 AM,34.9,22.6,61,29.68,-9999.0,SE,5.8,-,N/A,,Clear,140,2013-12-04 14:35:00
7:55 AM,41.7,20.3,42,29.68,-9999.0,SSW,12.7,19.6,N/A,,Clear,210,2013-12-04 14:55:00
8:15 AM,43.9,20.5,39,29.69,-9999.0,SW,15.0,33.4,N/A,,Clear,220,2013-12-04 15:15:00
8:35 AM,45.5,20.8,38,29.69,-9999.0,SSW,17.3,31.1,N/A,,Clear,210,2013-12-04 15:35:00
8:55 AM,47.1,20.5,35,29.69,-9999.0,SW,24.2,33.4,N/A,,Clear,220,2013-12-04 15:55:00
9:15 AM,47.8,20.3,34,29.69,-9999.0,SW,24.2,39.1,N/A,,Clear,220,2013-12-04 16:15:00
9:35 AM,47.8,21.6,35,29.71,-9999.0,SW,26.5,39.1,N/A,,Clear,230,2013-12-04 16:35:00
9:55 AM,48.4,21.4,35,29.70,-9999.0,SW,27.6,38.0,N/A,,Clear,220,2013-12-04 16:55:00
10:15 AM,49.3,21.0,33,29.70,-9999.0,SW,26.5,41.4,N/A,,Clear,220,2013-12-04 17:15:00
10:35 AM,49.3,21.4,33,29.71,-9999.0,SSW,24.2,35.7,N/A,,Clear,210,2013-12-04 17:35:00
10:55 AM,49.6,21.7,33,29.71,-9999.0,WSW,24.2,31.1,N/A,,Clear,240,2013-12-04 17:55:00
11:15 AM,50.0,21.2,32,29.71,-9999.0,WSW,29.9,41.4,N/A,,Scattered Clouds,240,2013-12-04 18:15:00
11:35 AM,49.6,21.7,33,29.71,-9999.0,SW,20.7,27.6,N/A,,Mostly Cloudy,230,2013-12-04 18:35:00
11:55 AM,50.0,21.0,32,29.71,-9999.0,WSW,18.4,34.5,N/A,,Mostly Cloudy,250,2013-12-04 18:55:00
12:15 PM,50.9,23.0,34,29.70,-9999.0,SW,15.0,34.5,N/A,,Scattered Clouds,220,2013-12-04 19:15:00
12:35 PM,51.6,21.7,31,29.69,-9999.0,WSW,23.0,34.5,N/A,,Clear,250,2013-12-04 19:35:00
12:55 PM,50.0,20.3,31,29.70,-9999.0,WSW,28.8,39.1,N/A,,Scattered Clouds,240,2013-12-04 19:55:00
1:15 PM,50.2,20.1,31,29.70,-9999.0,SW,29.9,43.7,N/A,,Scattered Clouds,230,2013-12-04 20:15:00
1:35 PM,48.2,18.7,31,29.71,-9999.0,WSW,33.4,49.5,N/A,,Clear,250,2013-12-04 20:35:00
1:55 PM,50.0,19.8,30,29.70,-9999.0,WSW,29.9,36.8,N/A,,Scattered Clouds,240,2013-12-04 20:55:00
2:15 PM,47.3,20.3,34,29.71,-9999.0,SW,29.9,43.7,N/A,,Mostly Cloudy,230,2013-12-04 21:15:00
2:35 PM,46.0,22.1,39,29.72,-9999.0,WSW,16.1,35.7,N/A,,Overcast,240,2013-12-04 21:35:00
2:55 PM,44.1,25.5,48,29.72,-9999.0,WSW,16.1,39.1,N/A,,Overcast,240,2013-12-04 21:55:00
3:15 PM,43.2,27.0,53,29.73,-9999.0,WSW,20.7,40.3,N/A,,Overcast,250,2013-12-04 22:15:00
3:35 PM,40.3,31.6,71,29.75,-9999.0,WSW,17.3,31.1,N/A,,Overcast,250,2013-12-04 22:35:00
3:55 PM,39.6,31.1,72,29.76,-9999.0,West,10.4,20.7,N/A,,Overcast,270,2013-12-04 22:55:00
4:15 PM,38.7,30.2,72,29.78,-9999.0,West,12.7,16.1,N/A,,Overcast,280,2013-12-04 23:15:00
4:35 PM,33.3,28.6,83,29.79,-9999.0,North,15.0,-,N/A,,Unknown,350,2013-12-04 23:35:00
4:55 PM,32.4,28.6,86,29.80,-9999.0,NNW,10.4,-,N/A,,Overcast,340,2013-12-04 23:55:00
5:15 PM,32.5,28.8,86,29.81,-9999.0,North,10.4,-,N/A,,Overcast,350,2013-12-05 00:15:00
5:35 PM,32.0,28.6,87,29.81,-9999.0,North,12.7,-,N/A,,Overcast,350,2013-12-05 00:35:00
5:55 PM,32.0,28.4,87,29.82,-9999.0,North,10.4,17.3,N/A,,Overcast,10,2013-12-05 00:55:00
6:15 PM,31.6,28.2,87,29.82,-9999.0,North,9.2,-,N/A,,Overcast,350,2013-12-05 01:15:00
6:35 PM,31.6,27.7,85,29.84,-9999.0,NE,10.4,-,N/A,,Unknown,40,2013-12-05 01:35:00
6:55 PM,31.8,27.1,83,29.84,-9999.0,NNE,12.7,17.3,N/A,,Overcast,30,2013-12-05 01:55:00
7:15 PM,30.9,27.5,87,29.85,-9999.0,NNE,9.2,16.1,N/A,,Overcast,30,2013-12-05 02:15:00
7:35 PM,30.4,26.8,86,29.87,-9999.0,NNE,10.4,19.6,N/A,,Overcast,20,2013-12-05 02:35:00
7:55 PM,30.2,26.2,85,29.86,-9999.0,NNE,9.2,12.7,N/A,,Overcast,20,2013-12-05 02:55:00
8:15 PM,30.6,26.2,84,29.87,-9999.0,NNE,8.1,-,N/A,,Overcast,20,2013-12-05 03:15:00
8:35 PM,30.7,25.9,82,29.87,-9999.0,North,8.1,-,N/A,,Overcast,10,2013-12-05 03:35:00
8:55 PM,30.6,24.4,78,29.88,-9999.0,North,9.2,-,N/A,,Overcast,350,2013-12-05 03:55:00
9:15 PM,30.2,23.5,76,29.88,-9999.0,North,10.4,-,N/A,,Overcast,360,2013-12-05 04:15:00
9:35 PM,30.2,22.3,72,29.88,-9999.0,North,9.2,-,N/A,,Overcast,350,2013-12-05 04:35:00
9:55 PM,30.0,21.2,70,29.88,-9999.0,NNW,10.4,-,N/A,,Overcast,340,2013-12-05 04:55:00
10:15 PM,29.7,19.9,67,29.88,-9999.0,NNW,11.5,-,N/A,,Overcast,330,2013-12-05 05:15:00
10:35 PM,29.7,19.4,66,29.88,-9999.0,NNW,11.5,-,N/A,,Overcast,330,2013-12-05 05:35:00
10:55 PM,29.7,19.6,66,29.89,-9999.0,NNW,8.1,-,N/A,,Overcast,330,2013-12-05 05:55:00
11:15 PM,29.7,20.5,69,29.88,-9999.0,North,3.5,-,N/A,,Overcast,350,2013-12-05 06:15:00
11:35 PM,29.5,20.3,69,29.87,-9999.0,NW,6.9,-,N/A,,Overcast,320,2013-12-05 06:35:00
11:55 PM,29.3,20.3,69,29.87,-9999.0,NNW,3.5,-,N/A,,Overcast,330,2013-12-05 06:55:00